Accueil
METAR-TAF:

METAR-TAF

Aéroports :

Diepholz, Allemagne

latitude: 52-35N, longitude: 008-21E, altitude: 39 m

Observation

Le bulletin a été fait il y a 6 heures et 49 minutes, à 13:20 UTC
Vent 14 kt de ouest/sud-ouest
Température 17°C
Humidité 52%
Pression 1028 hPa
Visibilité 10 km ou plus
Quelques nuages à une hauteur de 3900 ft

METAR: ETND 061320Z 25014KT 9999 FEW039 17/07 Q1028 BLU+

Heure: 22:09 (20:09 UTC)

Prévision

Le bulletin a été fait il y a 10 heures et 9 minutes, à 10:00 UTC
Prévision valable du 06 à 11 UTC au 06 à 20 UTC
Vent 10 kt de ouest/sud-ouest avec des rafales jusqu'à 20 kt
Visibilité 10 km ou plus
Quelques nuages à une hauteur de 3000 ft

TAF: ETND 061000Z 0611/0620 25010G20KT 9999 NSW FEW030 BY ETGL

Observations et prévisions météorologiques de plus de 4000 aéroports (messages METAR et TAF).

Les stations disponibles sont représentées par des disques jaunes et rouges sur la carte.

Passer la souris dessus pour voir le nom de la station.

Cliquer dessus pour voir les observations et prévisions météorologiques.

Pour changer de carte: cliquez sur les boutons verts avec une croix noire pour zoomer, sur le bouton vert avec un tiret pour effectuer un zoom arrière, ou sur les flèches vertes pour les cartes adjacentes.


METAR-TAF: